sensor_id;sensor_type;location;lat;lon;timestamp;temperature;humidity
5176;DHT22;2607;50.934;6.934;2023-02-28T00:00:30;3.00;95.70
5176;DHT22;2607;50.934;6.934;2023-02-28T00:02:56;3.00;95.80
5176;DHT22;2607;50.934;6.934;2023-02-28T00:05:24;3.00;95.90
5176;DHT22;2607;50.934;6.934;2023-02-28T00:07:50;3.00;95.90
5176;DHT22;2607;50.934;6.934;2023-02-28T00:10:18;3.00;96.00
5176;DHT22;2607;50.934;6.934;2023-02-28T00:12:46;3.00;96.00
5176;DHT22;2607;50.934;6.934;2023-02-28T00:15:12;3.00;95.90
5176;DHT22;2607;50.934;6.934;2023-02-28T00:17:38;3.00;95.90
5176;DHT22;2607;50.934;6.934;2023-02-28T00:20:06;2.90;95.80
5176;DHT22;2607;50.934;6.934;2023-02-28T00:22:34;2.90;95.90
5176;DHT22;2607;50.934;6.934;2023-02-28T00:24:59;2.90;96.00
5176;DHT22;2607;50.934;6.934;2023-02-28T00:27:25;2.90;96.00
5176;DHT22;2607;50.934;6.934;2023-02-28T00:29:51;2.90;96.10
5176;DHT22;2607;50.934;6.934;2023-02-28T00:32:16;2.90;96.30
5176;DHT22;2607;50.934;6.934;2023-02-28T00:34:44;2.80;96.20
5176;DHT22;2607;50.934;6.934;2023-02-28T00:37:11;2.80;96.20
5176;DHT22;2607;50.934;6.934;2023-02-28T00:39:39;2.80;96.30
5176;DHT22;2607;50.934;6.934;2023-02-28T00:42:06;2.80;96.30
5176;DHT22;2607;50.934;6.934;2023-02-28T00:44:32;2.80;96.30
5176;DHT22;2607;50.934;6.934;2023-02-28T00:46:58;2.80;96.30
5176;DHT22;2607;50.934;6.934;2023-02-28T00:49:25;2.80;96.50
5176;DHT22;2607;50.934;6.934;2023-02-28T00:51:51;2.70;96.50
5176;DHT22;2607;50.934;6.934;2023-02-28T00:54:16;2.70;96.60
5176;DHT22;2607;50.934;6.934;2023-02-28T00:56:42;2.70;96.70
5176;DHT22;2607;50.934;6.934;2023-02-28T00:59:08;2.70;96.80
5176;DHT22;2607;50.934;6.934;2023-02-28T01:01:34;2.70;96.70
5176;DHT22;2607;50.934;6.934;2023-02-28T01:03:59;2.70;96.70
5176;DHT22;2607;50.934;6.934;2023-02-28T01:06:25;2.60;96.70
5176;DHT22;2607;50.934;6.934;2023-02-28T01:08:50;2.70;96.80
5176;DHT22;2607;50.934;6.934;2023-02-28T01:11:17;2.60;96.70
5176;DHT22;2607;50.934;6.934;2023-02-28T01:13:43;2.60;96.70
5176;DHT22;2607;50.934;6.934;2023-02-28T01:16:09;2.60;96.70
5176;DHT22;2607;50.934;6.934;2023-02-28T01:18:36;2.60;96.80
5176;DHT22;2607;50.934;6.934;2023-02-28T01:21:06;2.60;96.90
5176;DHT22;2607;50.934;6.934;2023-02-28T01:23:32;2.60;97.00
5176;DHT22;2607;50.934;6.934;2023-02-28T01:26:06;2.60;96.90
5176;DHT22;2607;50.934;6.934;2023-02-28T01:28:32;2.60;96.90
5176;DHT22;2607;50.934;6.934;2023-02-28T01:30:58;2.60;96.90
5176;DHT22;2607;50.934;6.934;2023-02-28T01:33:23;2.60;96.80
5176;DHT22;2607;50.934;6.934;2023-02-28T01:35:49;2.60;96.90
5176;DHT22;2607;50.934;6.934;2023-02-28T01:38:15;2.60;97.10
5176;DHT22;2607;50.934;6.934;2023-02-28T01:40:40;2.60;97.10
5176;DHT22;2607;50.934;6.934;2023-02-28T01:43:23;2.50;97.00
5176;DHT22;2607;50.934;6.934;2023-02-28T01:45:49;2.50;97.00
5176;DHT22;2607;50.934;6.934;2023-02-28T01:48:14;2.50;96.90
5176;DHT22;2607;50.934;6.934;2023-02-28T01:50:43;2.50;96.80
5176;DHT22;2607;50.934;6.934;2023-02-28T01:53:14;2.50;96.80
5176;DHT22;2607;50.934;6.934;2023-02-28T01:55:42;2.50;96.80
5176;DHT22;2607;50.934;6.934;2023-02-28T01:58:10;2.50;96.90
5176;DHT22;2607;50.934;6.934;2023-02-28T02:00:36;2.50;96.90
5176;DHT22;2607;50.934;6.934;2023-02-28T02:03:09;2.40;96.90
5176;DHT22;2607;50.934;6.934;2023-02-28T02:05:38;2.40;96.80
5176;DHT22;2607;50.934;6.934;2023-02-28T02:08:12;2.40;97.00
5176;DHT22;2607;50.934;6.934;2023-02-28T02:10:54;2.40;97.10
5176;DHT22;2607;50.934;6.934;2023-02-28T02:22:05;2.40;97.10
5176;DHT22;2607;50.934;6.934;2023-02-28T02:25:05;2.30;97.10
5176;DHT22;2607;50.934;6.934;2023-02-28T02:27:59;2.40;97.00
5176;DHT22;2607;50.934;6.934;2023-02-28T02:30:33;2.40;96.70
5176;DHT22;2607;50.934;6.934;2023-02-28T02:38:36;2.30;96.60
5176;DHT22;2607;50.934;6.934;2023-02-28T02:44:15;2.30;96.40
5176;DHT22;2607;50.934;6.934;2023-02-28T02:46:44;2.30;96.10
5176;DHT22;2607;50.934;6.934;2023-02-28T02:49:16;2.30;96.00
5176;DHT22;2607;50.934;6.934;2023-02-28T02:51:44;2.30;95.80
5176;DHT22;2607;50.934;6.934;2023-02-28T02:54:26;2.20;95.70
5176;DHT22;2607;50.934;6.934;2023-02-28T02:56:57;2.20;95.60
5176;DHT22;2607;50.934;6.934;2023-02-28T02:59:25;2.20;95.50
5176;DHT22;2607;50.934;6.934;2023-02-28T03:01:54;2.20;94.90
5176;DHT22;2607;50.934;6.934;2023-02-28T03:04:23;2.20;95.10
5176;DHT22;2607;50.934;6.934;2023-02-28T03:06:51;2.20;95.10
5176;DHT22;2607;50.934;6.934;2023-02-28T03:09:21;2.20;95.10
5176;DHT22;2607;50.934;6.934;2023-02-28T03:11:47;2.20;95.10
5176;DHT22;2607;50.934;6.934;2023-02-28T03:17:17;2.20;94.70
5176;DHT22;2607;50.934;6.934;2023-02-28T03:26:07;2.10;94.30
5176;DHT22;2607;50.934;6.934;2023-02-28T03:30:54;2.10;94.20
5176;DHT22;2607;50.934;6.934;2023-02-28T03:33:33;2.10;94.20
5176;DHT22;2607;50.934;6.934;2023-02-28T03:36:30;2.10;94.10
5176;DHT22;2607;50.934;6.934;2023-02-28T03:39:09;2.10;94.00
5176;DHT22;2607;50.934;6.934;2023-02-28T03:41:48;2.10;93.70
5176;DHT22;2607;50.934;6.934;2023-02-28T03:44:25;2.10;93.60
5176;DHT22;2607;50.934;6.934;2023-02-28T03:47:20;2.10;93.50
5176;DHT22;2607;50.934;6.934;2023-02-28T03:52:23;2.10;93.40
5176;DHT22;2607;50.934;6.934;2023-02-28T03:54:57;2.10;93.30
5176;DHT22;2607;50.934;6.934;2023-02-28T03:57:33;2.10;93.20
5176;DHT22;2607;50.934;6.934;2023-02-28T04:00:05;2.10;93.40
5176;DHT22;2607;50.934;6.934;2023-02-28T04:02:32;2.10;92.80
5176;DHT22;2607;50.934;6.934;2023-02-28T04:04:57;2.10;92.80
5176;DHT22;2607;50.934;6.934;2023-02-28T04:07:24;2.10;92.90
5176;DHT22;2607;50.934;6.934;2023-02-28T04:09:50;2.10;93.00
5176;DHT22;2607;50.934;6.934;2023-02-28T04:12:16;2.10;93.10
5176;DHT22;2607;50.934;6.934;2023-02-28T04:14:42;2.00;92.90
5176;DHT22;2607;50.934;6.934;2023-02-28T04:17:07;2.10;93.00
5176;DHT22;2607;50.934;6.934;2023-02-28T04:19:33;2.00;93.30
5176;DHT22;2607;50.934;6.934;2023-02-28T04:21:59;2.00;93.50
5176;DHT22;2607;50.934;6.934;2023-02-28T04:24:26;1.90;93.80
5176;DHT22;2607;50.934;6.934;2023-02-28T04:26:53;1.90;94.10
5176;DHT22;2607;50.934;6.934;2023-02-28T04:29:23;1.90;94.40
5176;DHT22;2607;50.934;6.934;2023-02-28T04:31:48;1.90;94.60
5176;DHT22;2607;50.934;6.934;2023-02-28T04:34:14;1.90;94.90
5176;DHT22;2607;50.934;6.934;2023-02-28T04:36:40;1.90;94.90
5176;DHT22;2607;50.934;6.934;2023-02-28T04:39:06;1.80;95.10
5176;DHT22;2607;50.934;6.934;2023-02-28T04:41:31;1.80;95.40
5176;DHT22;2607;50.934;6.934;2023-02-28T04:43:57;1.80;95.60
5176;DHT22;2607;50.934;6.934;2023-02-28T04:46:23;1.80;95.80
5176;DHT22;2607;50.934;6.934;2023-02-28T04:48:49;1.80;95.80
5176;DHT22;2607;50.934;6.934;2023-02-28T04:51:17;1.80;96.00
5176;DHT22;2607;50.934;6.934;2023-02-28T04:53:43;1.80;95.80
5176;DHT22;2607;50.934;6.934;2023-02-28T04:56:13;1.80;95.90
5176;DHT22;2607;50.934;6.934;2023-02-28T04:58:38;1.80;96.00
5176;DHT22;2607;50.934;6.934;2023-02-28T05:01:06;1.80;96.10
5176;DHT22;2607;50.934;6.934;2023-02-28T05:03:39;1.80;96.20
5176;DHT22;2607;50.934;6.934;2023-02-28T05:06:06;1.70;96.10
5176;DHT22;2607;50.934;6.934;2023-02-28T05:08:32;1.80;95.20
5176;DHT22;2607;50.934;6.934;2023-02-28T05:10:58;1.80;94.70
5176;DHT22;2607;50.934;6.934;2023-02-28T05:13:26;1.80;95.00
5176;DHT22;2607;50.934;6.934;2023-02-28T05:15:52;1.70;95.30
5176;DHT22;2607;50.934;6.934;2023-02-28T05:18:18;1.70;95.40
5176;DHT22;2607;50.934;6.934;2023-02-28T05:20:43;1.70;95.50
5176;DHT22;2607;50.934;6.934;2023-02-28T05:23:11;1.70;95.60
5176;DHT22;2607;50.934;6.934;2023-02-28T05:25:38;1.60;95.70
5176;DHT22;2607;50.934;6.934;2023-02-28T05:28:03;1.60;95.70
5176;DHT22;2607;50.934;6.934;2023-02-28T05:30:29;1.60;95.70
5176;DHT22;2607;50.934;6.934;2023-02-28T05:32:55;1.60;95.70
5176;DHT22;2607;50.934;6.934;2023-02-28T05:35:20;1.60;95.80
5176;DHT22;2607;50.934;6.934;2023-02-28T05:37:46;1.60;95.80
5176;DHT22;2607;50.934;6.934;2023-02-28T05:40:12;1.60;95.70
5176;DHT22;2607;50.934;6.934;2023-02-28T05:42:38;1.60;95.60
5176;DHT22;2607;50.934;6.934;2023-02-28T05:45:04;1.60;95.60
5176;DHT22;2607;50.934;6.934;2023-02-28T05:47:30;1.60;95.40
5176;DHT22;2607;50.934;6.934;2023-02-28T05:49:56;1.60;95.50
5176;DHT22;2607;50.934;6.934;2023-02-28T05:52:21;1.50;95.50
5176;DHT22;2607;50.934;6.934;2023-02-28T05:54:47;1.50;95.20
5176;DHT22;2607;50.934;6.934;2023-02-28T05:57:13;1.60;94.70
5176;DHT22;2607;50.934;6.934;2023-02-28T05:59:38;1.60;94.90
5176;DHT22;2607;50.934;6.934;2023-02-28T06:02:10;1.50;94.90
5176;DHT22;2607;50.934;6.934;2023-02-28T06:04:37;1.50;94.90
5176;DHT22;2607;50.934;6.934;2023-02-28T06:07:02;1.60;94.90
5176;DHT22;2607;50.934;6.934;2023-02-28T06:09:28;1.60;94.70
5176;DHT22;2607;50.934;6.934;2023-02-28T06:11:54;1.60;94.50
5176;DHT22;2607;50.934;6.934;2023-02-28T06:14:20;1.60;94.40
5176;DHT22;2607;50.934;6.934;2023-02-28T06:16:46;1.60;94.30
5176;DHT22;2607;50.934;6.934;2023-02-28T06:19:12;1.60;94.20
5176;DHT22;2607;50.934;6.934;2023-02-28T06:21:38;1.60;93.80
5176;DHT22;2607;50.934;6.934;2023-02-28T06:24:04;1.60;94.00
5176;DHT22;2607;50.934;6.934;2023-02-28T06:26:30;1.60;94.00
5176;DHT22;2607;50.934;6.934;2023-02-28T06:28:56;1.60;93.90
5176;DHT22;2607;50.934;6.934;2023-02-28T06:31:22;1.60;93.80
5176;DHT22;2607;50.934;6.934;2023-02-28T06:33:48;1.60;93.80
5176;DHT22;2607;50.934;6.934;2023-02-28T06:36:16;1.70;93.30
5176;DHT22;2607;50.934;6.934;2023-02-28T06:38:42;1.70;93.50
5176;DHT22;2607;50.934;6.934;2023-02-28T06:41:08;1.70;93.50
5176;DHT22;2607;50.934;6.934;2023-02-28T06:43:37;1.70;93.60
5176;DHT22;2607;50.934;6.934;2023-02-28T06:46:06;1.70;93.60
5176;DHT22;2607;50.934;6.934;2023-02-28T06:48:32;1.70;93.50
5176;DHT22;2607;50.934;6.934;2023-02-28T06:51:05;1.70;93.30
5176;DHT22;2607;50.934;6.934;2023-02-28T06:53:31;1.70;93.20
5176;DHT22;2607;50.934;6.934;2023-02-28T06:55:57;1.70;92.90
5176;DHT22;2607;50.934;6.934;2023-02-28T06:58:22;1.60;92.90
5176;DHT22;2607;50.934;6.934;2023-02-28T07:00:51;1.60;92.90
5176;DHT22;2607;50.934;6.934;2023-02-28T07:03:17;1.60;93.10
5176;DHT22;2607;50.934;6.934;2023-02-28T07:05:44;1.60;93.10
5176;DHT22;2607;50.934;6.934;2023-02-28T07:08:09;1.60;93.20
5176;DHT22;2607;50.934;6.934;2023-02-28T07:10:37;1.60;93.10
5176;DHT22;2607;50.934;6.934;2023-02-28T07:13:04;1.60;92.90
5176;DHT22;2607;50.934;6.934;2023-02-28T07:15:29;1.60;92.90
5176;DHT22;2607;50.934;6.934;2023-02-28T07:17:55;1.70;92.70
5176;DHT22;2607;50.934;6.934;2023-02-28T07:20:22;1.60;92.80
5176;DHT22;2607;50.934;6.934;2023-02-28T07:22:48;1.70;92.90
5176;DHT22;2607;50.934;6.934;2023-02-28T07:25:24;1.70;92.90
5176;DHT22;2607;50.934;6.934;2023-02-28T07:27:50;1.60;92.70
5176;DHT22;2607;50.934;6.934;2023-02-28T07:30:16;1.70;92.70
5176;DHT22;2607;50.934;6.934;2023-02-28T07:32:42;1.70;92.70
5176;DHT22;2607;50.934;6.934;2023-02-28T07:35:07;1.70;92.70
5176;DHT22;2607;50.934;6.934;2023-02-28T07:37:33;1.70;92.60
5176;DHT22;2607;50.934;6.934;2023-02-28T07:40:04;1.70;92.50
5176;DHT22;2607;50.934;6.934;2023-02-28T07:42:36;1.80;92.50
5176;DHT22;2607;50.934;6.934;2023-02-28T07:45:03;1.80;92.40
5176;DHT22;2607;50.934;6.934;2023-02-28T07:47:30;1.80;92.30
5176;DHT22;2607;50.934;6.934;2023-02-28T07:49:55;1.80;92.20
5176;DHT22;2607;50.934;6.934;2023-02-28T07:52:21;1.80;92.10
5176;DHT22;2607;50.934;6.934;2023-02-28T07:54:50;1.90;92.10
5176;DHT22;2607;50.934;6.934;2023-02-28T07:57:16;1.90;91.40
5176;DHT22;2607;50.934;6.934;2023-02-28T07:59:42;1.90;91.00
5176;DHT22;2607;50.934;6.934;2023-02-28T08:02:18;1.90;91.00
5176;DHT22;2607;50.934;6.934;2023-02-28T08:04:44;2.00;90.90
5176;DHT22;2607;50.934;6.934;2023-02-28T08:07:12;2.00;90.40
5176;DHT22;2607;50.934;6.934;2023-02-28T08:09:39;2.00;90.30
5176;DHT22;2607;50.934;6.934;2023-02-28T08:12:04;2.10;90.20
5176;DHT22;2607;50.934;6.934;2023-02-28T08:14:30;2.10;90.10
5176;DHT22;2607;50.934;6.934;2023-02-28T08:16:55;2.10;90.00
5176;DHT22;2607;50.934;6.934;2023-02-28T08:19:21;2.10;89.30
5176;DHT22;2607;50.934;6.934;2023-02-28T08:21:46;2.20;88.20
5176;DHT22;2607;50.934;6.934;2023-02-28T08:24:12;2.20;87.80
5176;DHT22;2607;50.934;6.934;2023-02-28T08:26:37;2.30;87.50
5176;DHT22;2607;50.934;6.934;2023-02-28T08:29:03;2.30;87.80
5176;DHT22;2607;50.934;6.934;2023-02-28T08:31:29;2.30;87.20
5176;DHT22;2607;50.934;6.934;2023-02-28T08:33:54;2.40;87.00
5176;DHT22;2607;50.934;6.934;2023-02-28T08:36:24;2.40;86.30
5176;DHT22;2607;50.934;6.934;2023-02-28T08:38:50;2.50;85.50
5176;DHT22;2607;50.934;6.934;2023-02-28T08:41:15;2.50;84.90
5176;DHT22;2607;50.934;6.934;2023-02-28T08:43:41;2.60;84.80
5176;DHT22;2607;50.934;6.934;2023-02-28T08:46:07;2.60;84.70
5176;DHT22;2607;50.934;6.934;2023-02-28T08:48:34;2.70;84.20
5176;DHT22;2607;50.934;6.934;2023-02-28T08:51:09;2.70;83.60
5176;DHT22;2607;50.934;6.934;2023-02-28T08:53:36;2.70;83.00
5176;DHT22;2607;50.934;6.934;2023-02-28T08:56:08;2.80;82.50
5176;DHT22;2607;50.934;6.934;2023-02-28T08:58:34;2.80;81.60
5176;DHT22;2607;50.934;6.934;2023-02-28T09:01:00;2.90;81.20
5176;DHT22;2607;50.934;6.934;2023-02-28T09:03:32;2.90;80.60
5176;DHT22;2607;50.934;6.934;2023-02-28T09:05:59;2.90;79.20
5176;DHT22;2607;50.934;6.934;2023-02-28T09:08:26;3.00;78.80
5176;DHT22;2607;50.934;6.934;2023-02-28T09:10:52;3.00;78.80
5176;DHT22;2607;50.934;6.934;2023-02-28T09:13:19;3.00;78.20
5176;DHT22;2607;50.934;6.934;2023-02-28T09:15:45;3.10;77.70
5176;DHT22;2607;50.934;6.934;2023-02-28T09:18:12;3.10;77.40
5176;DHT22;2607;50.934;6.934;2023-02-28T09:20:38;3.10;76.80
5176;DHT22;2607;50.934;6.934;2023-02-28T09:23:05;3.20;76.50
5176;DHT22;2607;50.934;6.934;2023-02-28T09:25:31;3.20;76.20
5176;DHT22;2607;50.934;6.934;2023-02-28T09:27:57;3.20;76.20
5176;DHT22;2607;50.934;6.934;2023-02-28T09:30:22;3.30;75.30
5176;DHT22;2607;50.934;6.934;2023-02-28T09:32:48;3.30;74.80
5176;DHT22;2607;50.934;6.934;2023-02-28T09:35:21;3.30;74.30
5176;DHT22;2607;50.934;6.934;2023-02-28T09:37:51;3.40;74.00
5176;DHT22;2607;50.934;6.934;2023-02-28T09:40:20;3.40;73.60
5176;DHT22;2607;50.934;6.934;2023-02-28T09:42:48;3.40;73.50
5176;DHT22;2607;50.934;6.934;2023-02-28T09:45:36;3.50;73.20
5176;DHT22;2607;50.934;6.934;2023-02-28T09:48:08;3.60;72.20
5176;DHT22;2607;50.934;6.934;2023-02-28T09:50:40;3.60;72.00
5176;DHT22;2607;50.934;6.934;2023-02-28T09:53:18;3.60;72.00
5176;DHT22;2607;50.934;6.934;2023-02-28T09:55:50;3.60;72.00
5176;DHT22;2607;50.934;6.934;2023-02-28T10:01:11;3.70;71.70
5176;DHT22;2607;50.934;6.934;2023-02-28T10:03:50;3.70;71.80
5176;DHT22;2607;50.934;6.934;2023-02-28T10:06:22;3.80;71.70
5176;DHT22;2607;50.934;6.934;2023-02-28T10:09:02;3.80;71.30
5176;DHT22;2607;50.934;6.934;2023-02-28T10:11:29;3.90;71.70
5176;DHT22;2607;50.934;6.934;2023-02-28T10:14:15;4.00;71.20
5176;DHT22;2607;50.934;6.934;2023-02-28T10:16:50;4.10;69.90
5176;DHT22;2607;50.934;6.934;2023-02-28T10:22:12;4.20;70.10
5176;DHT22;2607;50.934;6.934;2023-02-28T10:24:44;4.30;67.70
5176;DHT22;2607;50.934;6.934;2023-02-28T10:27:14;4.40;67.80
5176;DHT22;2607;50.934;6.934;2023-02-28T10:29:43;4.40;67.20
5176;DHT22;2607;50.934;6.934;2023-02-28T10:32:12;4.40;67.30
5176;DHT22;2607;50.934;6.934;2023-02-28T10:34:39;4.40;67.80
5176;DHT22;2607;50.934;6.934;2023-02-28T10:37:05;4.50;68.10
5176;DHT22;2607;50.934;6.934;2023-02-28T10:39:43;4.50;68.10
5176;DHT22;2607;50.934;6.934;2023-02-28T10:42:25;4.60;67.70
5176;DHT22;2607;50.934;6.934;2023-02-28T10:45:10;4.70;67.30
5176;DHT22;2607;50.934;6.934;2023-02-28T10:50:34;5.00;65.10
5176;DHT22;2607;50.934;6.934;2023-02-28T10:55:58;5.00;66.10
5176;DHT22;2607;50.934;6.934;2023-02-28T10:58:26;5.10;65.40
5176;DHT22;2607;50.934;6.934;2023-02-28T11:00:52;5.10;65.50
5176;DHT22;2607;50.934;6.934;2023-02-28T11:05:51;5.20;65.70
5176;DHT22;2607;50.934;6.934;2023-02-28T11:08:17;5.20;66.00
5176;DHT22;2607;50.934;6.934;2023-02-28T11:10:57;5.20;65.50
5176;DHT22;2607;50.934;6.934;2023-02-28T11:13:35;5.20;64.80
5176;DHT22;2607;50.934;6.934;2023-02-28T11:16:04;5.30;64.20
5176;DHT22;2607;50.934;6.934;2023-02-28T11:21:15;5.40;65.20
5176;DHT22;2607;50.934;6.934;2023-02-28T11:23:42;5.50;65.40
5176;DHT22;2607;50.934;6.934;2023-02-28T11:26:09;5.60;64.60
5176;DHT22;2607;50.934;6.934;2023-02-28T11:28:39;5.70;64.50
5176;DHT22;2607;50.934;6.934;2023-02-28T11:31:15;5.80;64.50
5176;DHT22;2607;50.934;6.934;2023-02-28T11:33:53;5.90;64.30
5176;DHT22;2607;50.934;6.934;2023-02-28T11:36:28;6.00;63.60
5176;DHT22;2607;50.934;6.934;2023-02-28T11:38:58;6.20;62.60
5176;DHT22;2607;50.934;6.934;2023-02-28T11:50:19;6.40;62.80
5176;DHT22;2607;50.934;6.934;2023-02-28T11:52:59;6.40;63.00
5176;DHT22;2607;50.934;6.934;2023-02-28T12:07:35;6.40;62.10
5176;DHT22;2607;50.934;6.934;2023-02-28T12:10:17;6.40;61.60
5176;DHT22;2607;50.934;6.934;2023-02-28T12:13:12;6.40;61.30
5176;DHT22;2607;50.934;6.934;2023-02-28T12:15:53;6.50;61.30
5176;DHT22;2607;50.934;6.934;2023-02-28T12:18:26;6.50;60.60
5176;DHT22;2607;50.934;6.934;2023-02-28T12:21:08;6.50;60.70
5176;DHT22;2607;50.934;6.934;2023-02-28T12:23:51;6.60;61.40
5176;DHT22;2607;50.934;6.934;2023-02-28T12:28:52;6.70;61.50
5176;DHT22;2607;50.934;6.934;2023-02-28T12:31:27;6.70;60.50
5176;DHT22;2607;50.934;6.934;2023-02-28T12:33:59;6.70;60.60
5176;DHT22;2607;50.934;6.934;2023-02-28T12:36:27;6.70;60.50
5176;DHT22;2607;50.934;6.934;2023-02-28T12:39:18;6.70;60.70
5176;DHT22;2607;50.934;6.934;2023-02-28T12:41:51;6.80;60.40
5176;DHT22;2607;50.934;6.934;2023-02-28T12:44:32;6.80;60.20
5176;DHT22;2607;50.934;6.934;2023-02-28T12:47:02;6.70;59.80
5176;DHT22;2607;50.934;6.934;2023-02-28T12:49:34;6.70;59.60
5176;DHT22;2607;50.934;6.934;2023-02-28T12:52:03;6.80;58.70
5176;DHT22;2607;50.934;6.934;2023-02-28T12:59:55;6.60;59.00
5176;DHT22;2607;50.934;6.934;2023-02-28T13:02:46;6.50;59.50
5176;DHT22;2607;50.934;6.934;2023-02-28T13:10:52;6.40;60.70
5176;DHT22;2607;50.934;6.934;2023-02-28T13:13:23;6.30;60.00
5176;DHT22;2607;50.934;6.934;2023-02-28T13:16:05;6.30;60.40
5176;DHT22;2607;50.934;6.934;2023-02-28T13:18:43;6.30;60.70
5176;DHT22;2607;50.934;6.934;2023-02-28T13:21:26;6.30;61.00
5176;DHT22;2607;50.934;6.934;2023-02-28T13:26:23;6.30;62.00
5176;DHT22;2607;50.934;6.934;2023-02-28T13:31:14;6.20;62.50
5176;DHT22;2607;50.934;6.934;2023-02-28T13:36:31;6.20;63.00
5176;DHT22;2607;50.934;6.934;2023-02-28T14:01:28;6.20;62.40
5176;DHT22;2607;50.934;6.934;2023-02-28T14:06:59;6.20;61.80
5176;DHT22;2607;50.934;6.934;2023-02-28T14:09:32;6.20;62.00
5176;DHT22;2607;50.934;6.934;2023-02-28T14:15:03;6.20;62.30
5176;DHT22;2607;50.934;6.934;2023-02-28T14:17:31;6.20;62.50
5176;DHT22;2607;50.934;6.934;2023-02-28T14:19:57;6.20;62.60
5176;DHT22;2607;50.934;6.934;2023-02-28T14:33:43;6.20;63.40
5176;DHT22;2607;50.934;6.934;2023-02-28T14:36:21;6.20;63.30
5176;DHT22;2607;50.934;6.934;2023-02-28T14:39:00;6.20;63.30
5176;DHT22;2607;50.934;6.934;2023-02-28T14:41:32;6.30;63.20
5176;DHT22;2607;50.934;6.934;2023-02-28T14:44:11;6.20;63.00
5176;DHT22;2607;50.934;6.934;2023-02-28T14:46:40;6.20;63.00
5176;DHT22;2607;50.934;6.934;2023-02-28T14:49:12;6.20;63.20
5176;DHT22;2607;50.934;6.934;2023-02-28T14:51:38;6.20;63.40
5176;DHT22;2607;50.934;6.934;2023-02-28T14:54:04;6.20;63.50
5176;DHT22;2607;50.934;6.934;2023-02-28T14:56:39;6.20;63.70
5176;DHT22;2607;50.934;6.934;2023-02-28T14:59:18;6.20;63.90
5176;DHT22;2607;50.934;6.934;2023-02-28T15:01:47;6.20;63.70
5176;DHT22;2607;50.934;6.934;2023-02-28T15:04:22;6.20;63.20
5176;DHT22;2607;50.934;6.934;2023-02-28T15:07:11;6.20;62.80
5176;DHT22;2607;50.934;6.934;2023-02-28T15:09:38;6.20;62.00
5176;DHT22;2607;50.934;6.934;2023-02-28T15:12:04;6.20;62.40
5176;DHT22;2607;50.934;6.934;2023-02-28T15:14:29;6.20;62.90
5176;DHT22;2607;50.934;6.934;2023-02-28T15:17:02;6.20;63.00
5176;DHT22;2607;50.934;6.934;2023-02-28T15:19:33;6.20;63.00
5176;DHT22;2607;50.934;6.934;2023-02-28T15:22:04;6.10;63.00
5176;DHT22;2607;50.934;6.934;2023-02-28T15:24:41;6.20;62.50
5176;DHT22;2607;50.934;6.934;2023-02-28T15:27:13;6.20;62.40
5176;DHT22;2607;50.934;6.934;2023-02-28T15:29:48;6.10;62.50
5176;DHT22;2607;50.934;6.934;2023-02-28T15:32:30;6.20;62.70
5176;DHT22;2607;50.934;6.934;2023-02-28T15:34:58;6.10;62.60
5176;DHT22;2607;50.934;6.934;2023-02-28T15:39:53;6.10;63.10
5176;DHT22;2607;50.934;6.934;2023-02-28T15:42:21;6.10;63.30
5176;DHT22;2607;50.934;6.934;2023-02-28T15:44:47;6.10;63.40
5176;DHT22;2607;50.934;6.934;2023-02-28T15:47:21;6.10;63.60
5176;DHT22;2607;50.934;6.934;2023-02-28T15:50:00;6.10;63.60
5176;DHT22;2607;50.934;6.934;2023-02-28T15:52:42;6.10;63.90
5176;DHT22;2607;50.934;6.934;2023-02-28T15:55:11;6.10;64.00
5176;DHT22;2607;50.934;6.934;2023-02-28T15:57:41;6.10;64.00
5176;DHT22;2607;50.934;6.934;2023-02-28T16:00:15;6.10;64.10
5176;DHT22;2607;50.934;6.934;2023-02-28T16:02:41;6.00;64.10
5176;DHT22;2607;50.934;6.934;2023-02-28T16:07:40;6.00;64.40
5176;DHT22;2607;50.934;6.934;2023-02-28T16:10:07;6.00;64.70
5176;DHT22;2607;50.934;6.934;2023-02-28T16:12:35;6.00;65.00
5176;DHT22;2607;50.934;6.934;2023-02-28T16:15:24;6.10;65.40
5176;DHT22;2607;50.934;6.934;2023-02-28T16:17:52;6.00;65.60
5176;DHT22;2607;50.934;6.934;2023-02-28T16:20:24;6.10;65.60
5176;DHT22;2607;50.934;6.934;2023-02-28T16:22:50;6.00;64.80
5176;DHT22;2607;50.934;6.934;2023-02-28T16:25:33;6.00;64.80
5176;DHT22;2607;50.934;6.934;2023-02-28T16:27:59;6.00;65.10
5176;DHT22;2607;50.934;6.934;2023-02-28T16:30:27;6.00;65.10
5176;DHT22;2607;50.934;6.934;2023-02-28T16:32:57;6.00;65.30
5176;DHT22;2607;50.934;6.934;2023-02-28T16:35:23;6.00;65.50
5176;DHT22;2607;50.934;6.934;2023-02-28T16:37:51;6.00;65.50
5176;DHT22;2607;50.934;6.934;2023-02-28T16:40:22;6.00;65.60
5176;DHT22;2607;50.934;6.934;2023-02-28T16:42:50;6.00;65.70
5176;DHT22;2607;50.934;6.934;2023-02-28T16:45:24;6.00;65.90
5176;DHT22;2607;50.934;6.934;2023-02-28T16:47:50;5.90;65.90
5176;DHT22;2607;50.934;6.934;2023-02-28T16:50:18;5.90;66.00
5176;DHT22;2607;50.934;6.934;2023-02-28T16:52:44;5.90;66.20
5176;DHT22;2607;50.934;6.934;2023-02-28T16:55:10;5.90;66.50
5176;DHT22;2607;50.934;6.934;2023-02-28T16:57:36;5.90;66.40
5176;DHT22;2607;50.934;6.934;2023-02-28T17:00:03;5.80;66.40
5176;DHT22;2607;50.934;6.934;2023-02-28T17:02:29;5.80;66.50
5176;DHT22;2607;50.934;6.934;2023-02-28T17:04:55;5.80;66.50
5176;DHT22;2607;50.934;6.934;2023-02-28T17:07:20;5.80;66.50
5176;DHT22;2607;50.934;6.934;2023-02-28T17:09:46;5.80;66.60
5176;DHT22;2607;50.934;6.934;2023-02-28T17:12:12;5.80;66.70
5176;DHT22;2607;50.934;6.934;2023-02-28T17:14:38;5.80;67.00
5176;DHT22;2607;50.934;6.934;2023-02-28T17:17:05;5.70;67.00
5176;DHT22;2607;50.934;6.934;2023-02-28T17:19:30;5.70;67.30
5176;DHT22;2607;50.934;6.934;2023-02-28T17:21:56;5.70;67.60
5176;DHT22;2607;50.934;6.934;2023-02-28T17:24:22;5.70;67.70
5176;DHT22;2607;50.934;6.934;2023-02-28T17:26:47;5.70;67.40
5176;DHT22;2607;50.934;6.934;2023-02-28T17:29:16;5.70;67.50
5176;DHT22;2607;50.934;6.934;2023-02-28T17:31:42;5.70;67.30
5176;DHT22;2607;50.934;6.934;2023-02-28T17:34:08;5.70;67.60
5176;DHT22;2607;50.934;6.934;2023-02-28T17:36:34;5.70;67.90
5176;DHT22;2607;50.934;6.934;2023-02-28T17:39:01;5.70;68.10
5176;DHT22;2607;50.934;6.934;2023-02-28T17:41:27;5.70;68.30
5176;DHT22;2607;50.934;6.934;2023-02-28T17:43:55;5.60;69.30
5176;DHT22;2607;50.934;6.934;2023-02-28T17:46:23;5.60;68.60
5176;DHT22;2607;50.934;6.934;2023-02-28T17:48:50;5.60;68.70
5176;DHT22;2607;50.934;6.934;2023-02-28T17:51:17;5.60;68.90
5176;DHT22;2607;50.934;6.934;2023-02-28T17:53:43;5.60;69.30
5176;DHT22;2607;50.934;6.934;2023-02-28T17:56:21;5.50;69.40
5176;DHT22;2607;50.934;6.934;2023-02-28T17:58:48;5.50;69.60
5176;DHT22;2607;50.934;6.934;2023-02-28T18:01:14;5.50;69.90
5176;DHT22;2607;50.934;6.934;2023-02-28T18:03:40;5.50;70.20
5176;DHT22;2607;50.934;6.934;2023-02-28T18:06:06;5.40;70.50
5176;DHT22;2607;50.934;6.934;2023-02-28T18:08:32;5.50;70.90
5176;DHT22;2607;50.934;6.934;2023-02-28T18:11:00;5.40;71.00
5176;DHT22;2607;50.934;6.934;2023-02-28T18:13:26;5.40;71.20
5176;DHT22;2607;50.934;6.934;2023-02-28T18:15:53;5.40;71.20
5176;DHT22;2607;50.934;6.934;2023-02-28T18:18:19;5.40;71.50
5176;DHT22;2607;50.934;6.934;2023-02-28T18:20:44;5.40;71.90
5176;DHT22;2607;50.934;6.934;2023-02-28T18:23:10;5.40;72.50
5176;DHT22;2607;50.934;6.934;2023-02-28T18:25:36;5.40;73.00
5176;DHT22;2607;50.934;6.934;2023-02-28T18:28:03;5.40;73.70
5176;DHT22;2607;50.934;6.934;2023-02-28T18:30:34;5.30;74.30
5176;DHT22;2607;50.934;6.934;2023-02-28T18:33:01;5.40;75.20
5176;DHT22;2607;50.934;6.934;2023-02-28T18:35:27;5.40;76.00
5176;DHT22;2607;50.934;6.934;2023-02-28T18:38:16;5.40;76.50
5176;DHT22;2607;50.934;6.934;2023-02-28T18:40:54;5.30;77.00
5176;DHT22;2607;50.934;6.934;2023-02-28T18:43:21;5.30;77.80
5176;DHT22;2607;50.934;6.934;2023-02-28T18:45:46;5.30;78.30